sensor_id;sensor_type;location;lat;lon;timestamp;P1;durP1;ratioP1;P2;durP2;ratioP2
33094;SDS011;19459;53.044;8.910;2023-04-03T00:00:40;10.73;;;2.67;;
33094;SDS011;19459;53.044;8.910;2023-04-03T00:03:06;6.72;;;2.17;;
33094;SDS011;19459;53.044;8.910;2023-04-03T00:05:32;10.05;;;2.45;;
33094;SDS011;19459;53.044;8.910;2023-04-03T00:07:58;5.05;;;1.98;;
33094;SDS011;19459;53.044;8.910;2023-04-03T00:10:24;4.50;;;1.77;;
33094;SDS011;19459;53.044;8.910;2023-04-03T00:12:51;10.65;;;2.65;;
33094;SDS011;19459;53.044;8.910;2023-04-03T00:15:17;4.40;;;1.75;;
33094;SDS011;19459;53.044;8.910;2023-04-03T00:17:43;4.53;;;1.67;;
33094;SDS011;19459;53.044;8.910;2023-04-03T00:20:09;4.28;;;1.58;;
33094;SDS011;19459;53.044;8.910;2023-04-03T00:22:35;8.65;;;2.25;;
33094;SDS011;19459;53.044;8.910;2023-04-03T00:25:01;5.68;;;1.88;;
33094;SDS011;19459;53.044;8.910;2023-04-03T00:27:27;9.90;;;2.17;;
33094;SDS011;19459;53.044;8.910;2023-04-03T00:29:52;8.95;;;2.78;;
33094;SDS011;19459;53.044;8.910;2023-04-03T00:32:18;5.07;;;2.45;;
33094;SDS011;19459;53.044;8.910;2023-04-03T00:34:44;5.78;;;2.35;;
33094;SDS011;19459;53.044;8.910;2023-04-03T00:37:10;6.05;;;1.75;;
33094;SDS011;19459;53.044;8.910;2023-04-03T00:39:36;3.83;;;1.70;;
33094;SDS011;19459;53.044;8.910;2023-04-03T00:42:01;10.75;;;2.58;;
33094;SDS011;19459;53.044;8.910;2023-04-03T00:46:53;7.25;;;2.55;;
33094;SDS011;19459;53.044;8.910;2023-04-03T00:49:19;9.35;;;2.38;;
33094;SDS011;19459;53.044;8.910;2023-04-03T00:51:45;8.35;;;2.75;;
33094;SDS011;19459;53.044;8.910;2023-04-03T00:54:11;6.80;;;2.33;;
33094;SDS011;19459;53.044;8.910;2023-04-03T00:56:38;8.75;;;2.55;;
33094;SDS011;19459;53.044;8.910;2023-04-03T00:59:06;11.80;;;2.92;;
33094;SDS011;19459;53.044;8.910;2023-04-03T01:01:37;10.05;;;2.75;;
33094;SDS011;19459;53.044;8.910;2023-04-03T01:04:04;11.63;;;3.55;;
33094;SDS011;19459;53.044;8.910;2023-04-03T01:06:35;7.18;;;2.60;;
33094;SDS011;19459;53.044;8.910;2023-04-03T01:09:02;7.30;;;2.72;;
33094;SDS011;19459;53.044;8.910;2023-04-03T01:11:29;7.50;;;2.65;;
33094;SDS011;19459;53.044;8.910;2023-04-03T01:13:55;6.72;;;2.55;;
33094;SDS011;19459;53.044;8.910;2023-04-03T01:16:21;8.93;;;2.80;;
33094;SDS011;19459;53.044;8.910;2023-04-03T01:18:47;10.50;;;3.13;;
33094;SDS011;19459;53.044;8.910;2023-04-03T01:21:25;5.60;;;2.03;;
33094;SDS011;19459;53.044;8.910;2023-04-03T01:27:00;10.63;;;2.67;;
33094;SDS011;19459;53.044;8.910;2023-04-03T01:29:29;6.45;;;2.10;;
33094;SDS011;19459;53.044;8.910;2023-04-03T01:31:56;4.90;;;2.58;;
33094;SDS011;19459;53.044;8.910;2023-04-03T01:34:25;7.35;;;2.03;;
33094;SDS011;19459;53.044;8.910;2023-04-03T01:36:51;9.95;;;2.60;;
33094;SDS011;19459;53.044;8.910;2023-04-03T01:39:17;10.23;;;2.50;;
33094;SDS011;19459;53.044;8.910;2023-04-03T01:41:44;8.05;;;2.63;;
33094;SDS011;19459;53.044;8.910;2023-04-03T01:44:10;7.88;;;2.55;;
33094;SDS011;19459;53.044;8.910;2023-04-03T01:46:36;9.95;;;2.25;;
33094;SDS011;19459;53.044;8.910;2023-04-03T01:49:02;7.47;;;2.88;;
33094;SDS011;19459;53.044;8.910;2023-04-03T01:51:29;8.35;;;2.63;;
33094;SDS011;19459;53.044;8.910;2023-04-03T01:53:55;7.57;;;2.08;;
33094;SDS011;19459;53.044;8.910;2023-04-03T01:56:21;9.07;;;2.35;;
33094;SDS011;19459;53.044;8.910;2023-04-03T01:58:47;8.38;;;2.38;;
33094;SDS011;19459;53.044;8.910;2023-04-03T02:01:13;12.07;;;2.70;;
33094;SDS011;19459;53.044;8.910;2023-04-03T02:03:40;8.35;;;2.50;;
33094;SDS011;19459;53.044;8.910;2023-04-03T02:06:05;5.60;;;2.00;;
33094;SDS011;19459;53.044;8.910;2023-04-03T02:08:31;16.23;;;2.97;;
33094;SDS011;19459;53.044;8.910;2023-04-03T02:10:57;7.65;;;2.22;;
33094;SDS011;19459;53.044;8.910;2023-04-03T02:13:23;4.47;;;2.15;;
33094;SDS011;19459;53.044;8.910;2023-04-03T02:15:49;17.60;;;3.55;;
33094;SDS011;19459;53.044;8.910;2023-04-03T02:18:14;6.70;;;3.03;;
33094;SDS011;19459;53.044;8.910;2023-04-03T02:20:41;15.32;;;2.30;;
33094;SDS011;19459;53.044;8.910;2023-04-03T02:23:07;8.48;;;2.88;;
33094;SDS011;19459;53.044;8.910;2023-04-03T02:25:33;10.68;;;3.38;;
33094;SDS011;19459;53.044;8.910;2023-04-03T02:27:59;6.82;;;2.97;;
33094;SDS011;19459;53.044;8.910;2023-04-03T02:30:25;8.18;;;2.40;;
33094;SDS011;19459;53.044;8.910;2023-04-03T02:32:51;10.73;;;2.60;;
33094;SDS011;19459;53.044;8.910;2023-04-03T02:35:17;7.63;;;2.50;;
33094;SDS011;19459;53.044;8.910;2023-04-03T02:37:43;8.43;;;2.60;;
33094;SDS011;19459;53.044;8.910;2023-04-03T02:40:09;14.68;;;3.92;;
33094;SDS011;19459;53.044;8.910;2023-04-03T02:42:36;11.02;;;2.85;;
33094;SDS011;19459;53.044;8.910;2023-04-03T02:45:02;5.35;;;2.33;;
33094;SDS011;19459;53.044;8.910;2023-04-03T02:47:28;8.68;;;2.95;;
33094;SDS011;19459;53.044;8.910;2023-04-03T02:49:54;6.47;;;2.28;;
33094;SDS011;19459;53.044;8.910;2023-04-03T02:52:20;11.77;;;2.47;;
33094;SDS011;19459;53.044;8.910;2023-04-03T02:54:46;7.18;;;2.50;;
33094;SDS011;19459;53.044;8.910;2023-04-03T02:57:12;13.95;;;2.67;;
33094;SDS011;19459;53.044;8.910;2023-04-03T02:59:38;14.57;;;3.25;;
33094;SDS011;19459;53.044;8.910;2023-04-03T03:02:06;4.22;;;2.63;;
33094;SDS011;19459;53.044;8.910;2023-04-03T03:04:35;8.77;;;2.58;;
33094;SDS011;19459;53.044;8.910;2023-04-03T03:07:01;15.05;;;2.55;;
33094;SDS011;19459;53.044;8.910;2023-04-03T03:09:30;14.07;;;2.50;;
33094;SDS011;19459;53.044;8.910;2023-04-03T03:11:56;10.82;;;2.95;;
33094;SDS011;19459;53.044;8.910;2023-04-03T03:14:22;8.85;;;3.08;;
33094;SDS011;19459;53.044;8.910;2023-04-03T03:16:48;4.22;;;1.95;;
33094;SDS011;19459;53.044;8.910;2023-04-03T03:19:14;8.20;;;2.30;;
33094;SDS011;19459;53.044;8.910;2023-04-03T03:21:40;10.77;;;2.30;;
33094;SDS011;19459;53.044;8.910;2023-04-03T03:24:06;13.15;;;2.75;;
33094;SDS011;19459;53.044;8.910;2023-04-03T03:26:32;9.63;;;3.72;;
33094;SDS011;19459;53.044;8.910;2023-04-03T03:28:58;12.30;;;2.85;;
33094;SDS011;19459;53.044;8.910;2023-04-03T03:31:26;12.13;;;3.42;;
33094;SDS011;19459;53.044;8.910;2023-04-03T03:33:52;7.13;;;2.30;;
33094;SDS011;19459;53.044;8.910;2023-04-03T03:36:18;12.02;;;2.88;;
33094;SDS011;19459;53.044;8.910;2023-04-03T03:38:43;10.27;;;2.78;;
33094;SDS011;19459;53.044;8.910;2023-04-03T03:41:09;13.00;;;3.45;;
33094;SDS011;19459;53.044;8.910;2023-04-03T03:43:35;5.75;;;2.20;;
33094;SDS011;19459;53.044;8.910;2023-04-03T03:46:01;8.45;;;2.75;;
33094;SDS011;19459;53.044;8.910;2023-04-03T03:48:27;10.95;;;2.55;;
33094;SDS011;19459;53.044;8.910;2023-04-03T03:50:53;6.03;;;2.33;;
33094;SDS011;19459;53.044;8.910;2023-04-03T03:53:18;9.65;;;2.13;;
33094;SDS011;19459;53.044;8.910;2023-04-03T03:55:44;7.88;;;2.83;;
33094;SDS011;19459;53.044;8.910;2023-04-03T03:58:10;8.05;;;2.63;;
33094;SDS011;19459;53.044;8.910;2023-04-03T04:00:36;7.93;;;3.03;;
33094;SDS011;19459;53.044;8.910;2023-04-03T04:03:02;5.45;;;2.83;;
33094;SDS011;19459;53.044;8.910;2023-04-03T04:05:28;11.55;;;2.88;;
33094;SDS011;19459;53.044;8.910;2023-04-03T04:07:54;5.05;;;2.47;;
33094;SDS011;19459;53.044;8.910;2023-04-03T04:10:19;7.53;;;2.75;;
33094;SDS011;19459;53.044;8.910;2023-04-03T04:12:45;11.25;;;3.78;;
33094;SDS011;19459;53.044;8.910;2023-04-03T04:15:11;12.32;;;3.30;;
33094;SDS011;19459;53.044;8.910;2023-04-03T04:17:37;8.80;;;2.70;;
33094;SDS011;19459;53.044;8.910;2023-04-03T04:20:03;5.55;;;2.22;;
33094;SDS011;19459;53.044;8.910;2023-04-03T04:22:30;6.78;;;2.60;;
33094;SDS011;19459;53.044;8.910;2023-04-03T04:24:56;7.93;;;2.22;;
33094;SDS011;19459;53.044;8.910;2023-04-03T04:27:21;12.85;;;2.78;;
33094;SDS011;19459;53.044;8.910;2023-04-03T04:29:47;9.00;;;2.40;;
33094;SDS011;19459;53.044;8.910;2023-04-03T04:32:13;11.32;;;2.80;;
33094;SDS011;19459;53.044;8.910;2023-04-03T04:34:39;15.43;;;2.63;;
33094;SDS011;19459;53.044;8.910;2023-04-03T04:37:05;9.07;;;2.70;;
33094;SDS011;19459;53.044;8.910;2023-04-03T04:39:30;11.75;;;3.45;;
33094;SDS011;19459;53.044;8.910;2023-04-03T04:41:56;10.77;;;2.60;;
33094;SDS011;19459;53.044;8.910;2023-04-03T04:44:22;9.48;;;3.05;;
33094;SDS011;19459;53.044;8.910;2023-04-03T04:46:48;9.52;;;2.92;;
33094;SDS011;19459;53.044;8.910;2023-04-03T04:49:13;7.88;;;2.83;;
33094;SDS011;19459;53.044;8.910;2023-04-03T04:51:39;9.38;;;2.83;;
33094;SDS011;19459;53.044;8.910;2023-04-03T04:54:05;13.80;;;2.83;;
33094;SDS011;19459;53.044;8.910;2023-04-03T04:56:31;15.70;;;3.40;;
33094;SDS011;19459;53.044;8.910;2023-04-03T04:58:56;12.38;;;3.20;;
33094;SDS011;19459;53.044;8.910;2023-04-03T05:01:22;8.63;;;3.60;;
33094;SDS011;19459;53.044;8.910;2023-04-03T05:03:48;13.90;;;4.13;;
33094;SDS011;19459;53.044;8.910;2023-04-03T05:06:14;9.70;;;2.58;;
33094;SDS011;19459;53.044;8.910;2023-04-03T05:08:40;8.77;;;2.80;;
33094;SDS011;19459;53.044;8.910;2023-04-03T05:11:06;8.48;;;3.10;;
33094;SDS011;19459;53.044;8.910;2023-04-03T05:13:31;10.50;;;3.67;;
33094;SDS011;19459;53.044;8.910;2023-04-03T05:15:57;10.45;;;2.80;;
33094;SDS011;19459;53.044;8.910;2023-04-03T05:18:23;13.88;;;3.10;;
33094;SDS011;19459;53.044;8.910;2023-04-03T05:20:49;6.63;;;2.67;;
33094;SDS011;19459;53.044;8.910;2023-04-03T05:23:16;8.25;;;2.58;;
33094;SDS011;19459;53.044;8.910;2023-04-03T05:25:42;9.30;;;2.70;;
33094;SDS011;19459;53.044;8.910;2023-04-03T05:28:10;9.80;;;3.25;;
33094;SDS011;19459;53.044;8.910;2023-04-03T05:30:36;13.80;;;3.38;;
33094;SDS011;19459;53.044;8.910;2023-04-03T05:33:02;13.07;;;2.97;;
33094;SDS011;19459;53.044;8.910;2023-04-03T05:35:28;16.40;;;2.85;;
33094;SDS011;19459;53.044;8.910;2023-04-03T05:37:54;8.07;;;3.60;;
33094;SDS011;19459;53.044;8.910;2023-04-03T05:40:20;12.05;;;3.35;;
33094;SDS011;19459;53.044;8.910;2023-04-03T05:42:46;13.82;;;3.97;;
33094;SDS011;19459;53.044;8.910;2023-04-03T05:45:12;8.90;;;2.40;;
33094;SDS011;19459;53.044;8.910;2023-04-03T05:47:37;10.48;;;2.78;;
33094;SDS011;19459;53.044;8.910;2023-04-03T05:50:04;15.10;;;3.80;;
33094;SDS011;19459;53.044;8.910;2023-04-03T05:52:31;6.15;;;2.40;;
33094;SDS011;19459;53.044;8.910;2023-04-03T05:55:02;9.40;;;3.00;;
33094;SDS011;19459;53.044;8.910;2023-04-03T05:57:28;9.68;;;2.53;;
33094;SDS011;19459;53.044;8.910;2023-04-03T05:59:54;11.95;;;2.65;;
33094;SDS011;19459;53.044;8.910;2023-04-03T06:02:24;8.40;;;2.42;;
33094;SDS011;19459;53.044;8.910;2023-04-03T06:04:51;7.65;;;2.35;;
33094;SDS011;19459;53.044;8.910;2023-04-03T06:07:20;8.55;;;2.85;;
33094;SDS011;19459;53.044;8.910;2023-04-03T06:09:51;7.63;;;2.83;;
33094;SDS011;19459;53.044;8.910;2023-04-03T06:12:17;9.88;;;2.75;;
33094;SDS011;19459;53.044;8.910;2023-04-03T06:14:43;9.00;;;2.40;;
33094;SDS011;19459;53.044;8.910;2023-04-03T06:17:09;10.20;;;2.80;;
33094;SDS011;19459;53.044;8.910;2023-04-03T06:19:35;8.77;;;2.83;;
33094;SDS011;19459;53.044;8.910;2023-04-03T06:22:01;4.80;;;2.22;;
33094;SDS011;19459;53.044;8.910;2023-04-03T06:24:28;6.22;;;2.28;;
33094;SDS011;19459;53.044;8.910;2023-04-03T06:26:54;15.82;;;2.78;;
33094;SDS011;19459;53.044;8.910;2023-04-03T06:29:20;9.65;;;2.50;;
33094;SDS011;19459;53.044;8.910;2023-04-03T06:31:46;15.00;;;2.30;;
33094;SDS011;19459;53.044;8.910;2023-04-03T06:34:12;10.93;;;2.55;;
33094;SDS011;19459;53.044;8.910;2023-04-03T06:36:38;9.50;;;2.25;;
33094;SDS011;19459;53.044;8.910;2023-04-03T06:39:05;13.20;;;2.95;;
33094;SDS011;19459;53.044;8.910;2023-04-03T06:41:32;4.72;;;2.40;;
33094;SDS011;19459;53.044;8.910;2023-04-03T06:43:58;8.27;;;2.35;;
33094;SDS011;19459;53.044;8.910;2023-04-03T06:46:25;7.22;;;2.10;;
33094;SDS011;19459;53.044;8.910;2023-04-03T06:48:52;10.52;;;2.80;;
33094;SDS011;19459;53.044;8.910;2023-04-03T06:51:23;10.48;;;2.55;;
33094;SDS011;19459;53.044;8.910;2023-04-03T06:53:51;6.43;;;1.92;;
33094;SDS011;19459;53.044;8.910;2023-04-03T06:56:19;8.95;;;2.45;;
33094;SDS011;19459;53.044;8.910;2023-04-03T06:58:46;11.00;;;2.20;;
33094;SDS011;19459;53.044;8.910;2023-04-03T07:01:12;7.68;;;2.25;;
33094;SDS011;19459;53.044;8.910;2023-04-03T07:03:40;5.75;;;1.85;;
33094;SDS011;19459;53.044;8.910;2023-04-03T07:06:06;13.55;;;3.03;;
33094;SDS011;19459;53.044;8.910;2023-04-03T07:08:36;11.07;;;2.45;;
33094;SDS011;19459;53.044;8.910;2023-04-03T07:11:02;14.27;;;2.88;;
33094;SDS011;19459;53.044;8.910;2023-04-03T07:13:28;6.35;;;2.17;;
33094;SDS011;19459;53.044;8.910;2023-04-03T07:15:54;5.55;;;2.15;;
33094;SDS011;19459;53.044;8.910;2023-04-03T07:18:20;5.85;;;1.88;;
33094;SDS011;19459;53.044;8.910;2023-04-03T07:20:46;5.35;;;1.90;;
33094;SDS011;19459;53.044;8.910;2023-04-03T07:23:12;14.82;;;2.15;;
33094;SDS011;19459;53.044;8.910;2023-04-03T07:25:44;8.95;;;1.83;;
33094;SDS011;19459;53.044;8.910;2023-04-03T07:30:42;13.32;;;2.33;;
33094;SDS011;19459;53.044;8.910;2023-04-03T07:33:13;7.78;;;1.63;;
33094;SDS011;19459;53.044;8.910;2023-04-03T07:35:41;9.52;;;2.08;;
33094;SDS011;19459;53.044;8.910;2023-04-03T07:38:08;8.85;;;2.05;;
33094;SDS011;19459;53.044;8.910;2023-04-03T07:40:35;12.82;;;2.22;;
33094;SDS011;19459;53.044;8.910;2023-04-03T07:43:01;8.13;;;3.35;;
33094;SDS011;19459;53.044;8.910;2023-04-03T07:45:27;6.95;;;1.27;;
33094;SDS011;19459;53.044;8.910;2023-04-03T07:47:54;8.43;;;1.90;;
33094;SDS011;19459;53.044;8.910;2023-04-03T07:50:20;9.27;;;1.60;;
33094;SDS011;19459;53.044;8.910;2023-04-03T07:52:45;3.33;;;1.35;;
33094;SDS011;19459;53.044;8.910;2023-04-03T07:55:12;9.65;;;1.75;;
33094;SDS011;19459;53.044;8.910;2023-04-03T07:57:38;3.83;;;1.50;;
33094;SDS011;19459;53.044;8.910;2023-04-03T08:00:07;3.47;;;1.38;;
33094;SDS011;19459;53.044;8.910;2023-04-03T08:02:34;9.05;;;1.80;;
33094;SDS011;19459;53.044;8.910;2023-04-03T08:05:00;4.40;;;1.40;;
33094;SDS011;19459;53.044;8.910;2023-04-03T08:07:26;5.53;;;1.67;;
33094;SDS011;19459;53.044;8.910;2023-04-03T08:09:52;3.95;;;1.17;;
33094;SDS011;19459;53.044;8.910;2023-04-03T08:12:18;4.28;;;1.30;;
33094;SDS011;19459;53.044;8.910;2023-04-03T08:14:44;4.97;;;1.70;;
33094;SDS011;19459;53.044;8.910;2023-04-03T08:17:10;7.93;;;1.40;;
33094;SDS011;19459;53.044;8.910;2023-04-03T08:19:38;8.80;;;1.40;;
33094;SDS011;19459;53.044;8.910;2023-04-03T08:22:05;4.60;;;1.60;;
33094;SDS011;19459;53.044;8.910;2023-04-03T08:24:32;6.40;;;1.45;;
33094;SDS011;19459;53.044;8.910;2023-04-03T08:26:58;4.30;;;1.67;;
33094;SDS011;19459;53.044;8.910;2023-04-03T08:29:25;2.83;;;1.20;;
33094;SDS011;19459;53.044;8.910;2023-04-03T08:31:50;2.50;;;0.98;;
33094;SDS011;19459;53.044;8.910;2023-04-03T08:34:17;4.15;;;1.75;;
33094;SDS011;19459;53.044;8.910;2023-04-03T08:36:44;4.45;;;1.50;;
33094;SDS011;19459;53.044;8.910;2023-04-03T08:39:10;12.98;;;1.60;;
33094;SDS011;19459;53.044;8.910;2023-04-03T08:50:04;13.07;;;2.15;;
33094;SDS011;19459;53.044;8.910;2023-04-03T08:52:47;4.50;;;1.05;;
33094;SDS011;19459;53.044;8.910;2023-04-03T08:58:27;3.65;;;1.25;;
33094;SDS011;19459;53.044;8.910;2023-04-03T09:01:14;7.07;;;1.17;;
33094;SDS011;19459;53.044;8.910;2023-04-03T09:04:05;2.33;;;0.80;;
33094;SDS011;19459;53.044;8.910;2023-04-03T09:06:37;8.55;;;1.23;;
33094;SDS011;19459;53.044;8.910;2023-04-03T09:15:03;5.65;;;1.40;;
33094;SDS011;19459;53.044;8.910;2023-04-03T09:17:51;4.10;;;1.15;;
33094;SDS011;19459;53.044;8.910;2023-04-03T09:23:19;4.22;;;0.98;;
33094;SDS011;19459;53.044;8.910;2023-04-03T09:26:26;13.77;;;1.48;;
33094;SDS011;19459;53.044;8.910;2023-04-03T09:29:02;5.40;;;1.38;;
33094;SDS011;19459;53.044;8.910;2023-04-03T09:31:39;9.20;;;1.27;;
33094;SDS011;19459;53.044;8.910;2023-04-03T09:34:27;3.08;;;0.95;;
33094;SDS011;19459;53.044;8.910;2023-04-03T09:37:00;1.30;;;0.82;;
33094;SDS011;19459;53.044;8.910;2023-04-03T09:39:31;4.63;;;1.10;;
33094;SDS011;19459;53.044;8.910;2023-04-03T09:42:16;3.20;;;1.00;;
33094;SDS011;19459;53.044;8.910;2023-04-03T09:47:29;5.78;;;0.88;;
33094;SDS011;19459;53.044;8.910;2023-04-03T09:52:43;3.80;;;1.60;;
33094;SDS011;19459;53.044;8.910;2023-04-03T09:55:16;7.40;;;1.77;;
33094;SDS011;19459;53.044;8.910;2023-04-03T09:57:43;4.97;;;0.77;;
33094;SDS011;19459;53.044;8.910;2023-04-03T10:00:22;3.55;;;1.52;;
33094;SDS011;19459;53.044;8.910;2023-04-03T10:02:56;5.28;;;2.00;;
33094;SDS011;19459;53.044;8.910;2023-04-03T10:05:32;5.60;;;1.17;;
33094;SDS011;19459;53.044;8.910;2023-04-03T10:08:14;12.65;;;2.08;;
33094;SDS011;19459;53.044;8.910;2023-04-03T10:11:04;8.75;;;1.58;;
33094;SDS011;19459;53.044;8.910;2023-04-03T10:13:52;4.40;;;1.15;;
33094;SDS011;19459;53.044;8.910;2023-04-03T10:25:04;4.53;;;1.35;;
33094;SDS011;19459;53.044;8.910;2023-04-03T10:31:25;7.80;;;1.10;;
33094;SDS011;19459;53.044;8.910;2023-04-03T10:43:15;11.80;;;1.87;;
33094;SDS011;19459;53.044;8.910;2023-04-03T10:51:56;2.83;;;1.20;;
33094;SDS011;19459;53.044;8.910;2023-04-03T10:54:38;2.42;;;1.48;;
33094;SDS011;19459;53.044;8.910;2023-04-03T10:57:27;2.72;;;0.95;;
33094;SDS011;19459;53.044;8.910;2023-04-03T10:59:58;5.03;;;1.40;;
33094;SDS011;19459;53.044;8.910;2023-04-03T11:05:06;1.70;;;0.82;;
33094;SDS011;19459;53.044;8.910;2023-04-03T11:07:57;5.30;;;1.10;;
33094;SDS011;19459;53.044;8.910;2023-04-03T11:10:38;14.82;;;3.25;;
33094;SDS011;19459;53.044;8.910;2023-04-03T11:13:16;9.35;;;1.95;;
33094;SDS011;19459;53.044;8.910;2023-04-03T11:15:48;6.63;;;1.65;;
33094;SDS011;19459;53.044;8.910;2023-04-03T11:18:15;6.82;;;1.13;;
33094;SDS011;19459;53.044;8.910;2023-04-03T11:20:56;3.08;;;0.90;;
33094;SDS011;19459;53.044;8.910;2023-04-03T11:23:36;5.95;;;1.10;;
33094;SDS011;19459;53.044;8.910;2023-04-03T11:26:12;2.30;;;1.42;;
33094;SDS011;19459;53.044;8.910;2023-04-03T11:28:41;1.08;;;0.80;;
33094;SDS011;19459;53.044;8.910;2023-04-03T11:34:18;10.50;;;2.58;;
33094;SDS011;19459;53.044;8.910;2023-04-03T11:37:01;4.63;;;1.40;;
33094;SDS011;19459;53.044;8.910;2023-04-03T11:39:55;6.72;;;1.75;;
33094;SDS011;19459;53.044;8.910;2023-04-03T11:42:38;9.27;;;1.58;;
33094;SDS011;19459;53.044;8.910;2023-04-03T11:48:03;5.78;;;1.48;;
33094;SDS011;19459;53.044;8.910;2023-04-03T12:05:52;5.05;;;1.50;;
33094;SDS011;19459;53.044;8.910;2023-04-03T12:22:06;3.10;;;1.88;;
33094;SDS011;19459;53.044;8.910;2023-04-03T12:41:24;3.08;;;1.50;;
33094;SDS011;19459;53.044;8.910;2023-04-03T12:47:08;3.47;;;1.60;;
33094;SDS011;19459;53.044;8.910;2023-04-03T12:49:54;1.83;;;1.13;;
33094;SDS011;19459;53.044;8.910;2023-04-03T12:55:16;2.28;;;1.10;;
33094;SDS011;19459;53.044;8.910;2023-04-03T12:57:45;6.43;;;1.65;;
33094;SDS011;19459;53.044;8.910;2023-04-03T13:03:03;3.20;;;1.60;;
33094;SDS011;19459;53.044;8.910;2023-04-03T13:05:32;4.72;;;1.23;;
33094;SDS011;19459;53.044;8.910;2023-04-03T13:07:59;3.55;;;1.60;;
33094;SDS011;19459;53.044;8.910;2023-04-03T13:10:28;2.47;;;1.27;;
33094;SDS011;19459;53.044;8.910;2023-04-03T13:12:59;7.97;;;2.35;;
33094;SDS011;19459;53.044;8.910;2023-04-03T13:15:44;5.80;;;1.55;;
33094;SDS011;19459;53.044;8.910;2023-04-03T13:18:22;3.05;;;1.70;;
33094;SDS011;19459;53.044;8.910;2023-04-03T13:20:59;8.57;;;1.77;;
33094;SDS011;19459;53.044;8.910;2023-04-03T13:23:41;4.55;;;1.63;;
33094;SDS011;19459;53.044;8.910;2023-04-03T13:26:13;5.57;;;1.77;;
33094;SDS011;19459;53.044;8.910;2023-04-03T13:28:43;4.07;;;1.80;;
33094;SDS011;19459;53.044;8.910;2023-04-03T13:33:43;4.43;;;1.27;;
33094;SDS011;19459;53.044;8.910;2023-04-03T13:36:40;7.40;;;2.00;;
33094;SDS011;19459;53.044;8.910;2023-04-03T13:41:44;3.97;;;1.58;;
33094;SDS011;19459;53.044;8.910;2023-04-03T13:46:47;8.35;;;1.40;;
33094;SDS011;19459;53.044;8.910;2023-04-03T13:49:40;4.53;;;1.50;;
33094;SDS011;19459;53.044;8.910;2023-04-03T13:52:29;3.88;;;1.45;;
33094;SDS011;19459;53.044;8.910;2023-04-03T13:55:15;3.70;;;1.75;;
33094;SDS011;19459;53.044;8.910;2023-04-03T14:00:48;5.50;;;1.70;;
33094;SDS011;19459;53.044;8.910;2023-04-03T14:03:19;4.93;;;1.73;;
33094;SDS011;19459;53.044;8.910;2023-04-03T14:05:51;6.28;;;1.52;;
33094;SDS011;19459;53.044;8.910;2023-04-03T14:08:18;7.05;;;1.90;;
33094;SDS011;19459;53.044;8.910;2023-04-03T14:10:44;3.53;;;1.38;;
33094;SDS011;19459;53.044;8.910;2023-04-03T14:13:15;6.22;;;1.70;;
33094;SDS011;19459;53.044;8.910;2023-04-03T14:15:44;4.55;;;1.83;;
33094;SDS011;19459;53.044;8.910;2023-04-03T14:18:13;3.70;;;1.40;;
33094;SDS011;19459;53.044;8.910;2023-04-03T14:20:44;4.35;;;1.35;;
33094;SDS011;19459;53.044;8.910;2023-04-03T14:23:10;2.53;;;1.13;;
33094;SDS011;19459;53.044;8.910;2023-04-03T14:25:36;4.20;;;1.52;;
33094;SDS011;19459;53.044;8.910;2023-04-03T14:28:14;2.08;;;1.25;;
33094;SDS011;19459;53.044;8.910;2023-04-03T14:30:46;3.42;;;1.38;;
33094;SDS011;19459;53.044;8.910;2023-04-03T14:33:16;6.03;;;1.67;;
33094;SDS011;19459;53.044;8.910;2023-04-03T14:35:46;5.90;;;2.20;;
33094;SDS011;19459;53.044;8.910;2023-04-03T14:38:24;4.25;;;1.55;;
33094;SDS011;19459;53.044;8.910;2023-04-03T14:40:53;5.53;;;1.60;;
33094;SDS011;19459;53.044;8.910;2023-04-03T14:43:20;3.38;;;1.45;;
33094;SDS011;19459;53.044;8.910;2023-04-03T14:45:46;5.35;;;1.60;;
33094;SDS011;19459;53.044;8.910;2023-04-03T14:48:18;3.63;;;1.58;;
33094;SDS011;19459;53.044;8.910;2023-04-03T14:50:50;3.20;;;1.60;;
33094;SDS011;19459;53.044;8.910;2023-04-03T14:53:17;6.93;;;1.67;;
33094;SDS011;19459;53.044;8.910;2023-04-03T14:55:47;4.18;;;2.08;;
33094;SDS011;19459;53.044;8.910;2023-04-03T14:58:15;2.65;;;1.35;;
33094;SDS011;19459;53.044;8.910;2023-04-03T15:00:43;3.15;;;1.35;;
33094;SDS011;19459;53.044;8.910;2023-04-03T15:03:14;4.55;;;1.80;;
33094;SDS011;19459;53.044;8.910;2023-04-03T15:05:46;4.45;;;1.52;;
33094;SDS011;19459;53.044;8.910;2023-04-03T15:08:18;6.25;;;1.67;;
33094;SDS011;19459;53.044;8.910;2023-04-03T15:10:48;2.75;;;1.50;;
33094;SDS011;19459;53.044;8.910;2023-04-03T15:13:17;3.22;;;1.45;;
33094;SDS011;19459;53.044;8.910;2023-04-03T15:15:43;4.22;;;1.63;;
33094;SDS011;19459;53.044;8.910;2023-04-03T15:18:11;5.85;;;1.50;;
33094;SDS011;19459;53.044;8.910;2023-04-03T15:20:43;2.78;;;1.30;;
33094;SDS011;19459;53.044;8.910;2023-04-03T15:23:11;4.40;;;1.65;;
33094;SDS011;19459;53.044;8.910;2023-04-03T15:25:40;6.13;;;1.50;;
33094;SDS011;19459;53.044;8.910;2023-04-03T15:28:09;7.13;;;1.60;;
33094;SDS011;19459;53.044;8.910;2023-04-03T15:30:44;5.10;;;1.48;;
33094;SDS011;19459;53.044;8.910;2023-04-03T15:33:10;3.47;;;1.73;;
33094;SDS011;19459;53.044;8.910;2023-04-03T15:35:35;5.28;;;1.50;;
33094;SDS011;19459;53.044;8.910;2023-04-03T15:38:01;5.63;;;1.38;;
33094;SDS011;19459;53.044;8.910;2023-04-03T15:40:27;1.95;;;1.25;;
33094;SDS011;19459;53.044;8.910;2023-04-03T15:42:53;3.15;;;1.60;;
33094;SDS011;19459;53.044;8.910;2023-04-03T15:45:19;3.10;;;2.25;;
33094;SDS011;19459;53.044;8.910;2023-04-03T15:47:46;9.55;;;5.35;;
33094;SDS011;19459;53.044;8.910;2023-04-03T15:50:12;6.90;;;2.50;;
33094;SDS011;19459;53.044;8.910;2023-04-03T15:52:37;3.40;;;1.67;;
33094;SDS011;19459;53.044;8.910;2023-04-03T15:55:04;3.85;;;1.50;;
33094;SDS011;19459;53.044;8.910;2023-04-03T15:57:31;9.77;;;2.40;;
33094;SDS011;19459;53.044;8.910;2023-04-03T15:59:56;2.80;;;1.55;;
33094;SDS011;19459;53.044;8.910;2023-04-03T16:02:22;4.85;;;1.88;;
33094;SDS011;19459;53.044;8.910;2023-04-03T16:04:49;5.68;;;1.50;;
33094;SDS011;19459;53.044;8.910;2023-04-03T16:07:15;4.25;;;1.40;;
33094;SDS011;19459;53.044;8.910;2023-04-03T16:09:40;6.68;;;1.58;;
33094;SDS011;19459;53.044;8.910;2023-04-03T16:12:06;12.80;;;4.00;;
33094;SDS011;19459;53.044;8.910;2023-04-03T16:14:32;3.47;;;1.65;;
33094;SDS011;19459;53.044;8.910;2023-04-03T16:16:58;4.50;;;3.10;;
33094;SDS011;19459;53.044;8.910;2023-04-03T16:19:25;5.20;;;2.75;;
33094;SDS011;19459;53.044;8.910;2023-04-03T16:21:50;3.65;;;1.92;;
33094;SDS011;19459;53.044;8.910;2023-04-03T16:24:18;6.35;;;1.70;;
33094;SDS011;19459;53.044;8.910;2023-04-03T16:26:44;6.05;;;1.60;;
33094;SDS011;19459;53.044;8.910;2023-04-03T16:29:09;8.15;;;1.75;;
33094;SDS011;19459;53.044;8.910;2023-04-03T16:31:35;6.22;;;1.63;;
33094;SDS011;19459;53.044;8.910;2023-04-03T16:34:01;3.33;;;1.52;;
33094;SDS011;19459;53.044;8.910;2023-04-03T16:36:27;7.82;;;2.03;;
33094;SDS011;19459;53.044;8.910;2023-04-03T16:38:53;4.82;;;1.92;;
33094;SDS011;19459;53.044;8.910;2023-04-03T16:41:19;3.40;;;1.40;;
33094;SDS011;19459;53.044;8.910;2023-04-03T16:43:44;7.53;;;1.67;;
33094;SDS011;19459;53.044;8.910;2023-04-03T16:46:10;9.50;;;1.90;;
33094;SDS011;19459;53.044;8.910;2023-04-03T16:48:36;3.60;;;1.90;;
33094;SDS011;19459;53.044;8.910;2023-04-03T16:51:02;7.22;;;1.85;;
33094;SDS011;19459;53.044;8.910;2023-04-03T16:53:28;13.57;;;2.25;;
33094;SDS011;19459;53.044;8.910;2023-04-03T16:55:56;5.82;;;2.22;;
33094;SDS011;19459;53.044;8.910;2023-04-03T16:58:23;3.55;;;1.95;;
33094;SDS011;19459;53.044;8.910;2023-04-03T17:00:49;6.25;;;1.77;;
33094;SDS011;19459;53.044;8.910;2023-04-03T17:03:15;5.72;;;2.15;;
33094;SDS011;19459;53.044;8.910;2023-04-03T17:05:41;14.35;;;8.07;;
33094;SDS011;19459;53.044;8.910;2023-04-03T17:08:08;17.00;;;9.43;;
33094;SDS011;19459;53.044;8.910;2023-04-03T17:10:34;7.88;;;3.90;;